Terminal Aerodrome Forecast
Issued by NWS Wakefield, VA

Home | Current Version | Previous Version | Text Only | Print | Product List | Glossary On
Versions: 1 2 3 4 5 6 7 8 9 10 11 12 13 14 15 16 17 18 19 20 21 22 23 24 25
329
FTUS41 KAKQ 230847 AAC
TAFSBY
TAF AMD
KSBY 230847Z 2309/2406 01010KT P6SM FEW018 FEW029 SCT070
      TEMPO 2309/2311 4SM BR OVC008
     FM231100 02006KT P6SM SCT020 BKN050
     FM231600 07009KT P6SM OVC050
     FM231900 07010KT P6SM VCSH SCT025 BKN040
     FM240200 08006KT 4SM -SHRA OVC025=

USA.gov is the U.S. government's official web portal to all federal, state and local government web resources and services.